logo
Search for airport 
image banner adimage banner adimage banner ad
image banner ad

OTHH - Hamad Intl

Located in Doha, Qatar

ICAO - , IATA - DOH

Data provided by Airmate  

General information

Coordinates: N25°16'28" E51°36'30"
Elevation is 13 feet MSL.
 
View others Airports in Ad Dawhah Municipality

Operational data

Special qualification required
Current time UTC:
Current local time:
Weather
METAR: OTHH 220900Z 13010KT CAVOK 31/17 Q1009 NOSIG
TAF: TAF OTHH 220506Z 2206/2312 11010KT 8000 NSC TEMPO 2209/2215 11014G24KT PROB30 TEMPO 2206/2214 5000 -RA FEW040CU BKN100 BECMG 2221/2223 34015KT
View NOTAMs / SUP AIP / TFR affecting this airport [VIEW]
Communications frequencies: [VIEW]

Runways:

RWY identifierQFULength (ft)Width (ft)SurfaceLDA (ft)
16R158°13944197UNK
34L338°13944197UNK
16L158°15912197UNK
34R338°15912197UNK

Airport contact information

Address: Doha Qatar

Satellite view of OTHH